Flinterbothnia — PBLG — position and weather

sailwx.info

Track history (hours):
 
Tides and Currents Weather Stations Pressure Air Temp Water Temp Dewpoint Dewpoint Depression Visibility Wind Speed Wind Dir Waves Ship Positions

Flinterbothnia

Last reported at 2014-Jul-24 07:33 UTC. Time now 2014-Jul-24 08:29 UTC.
Position N 54°04' E 004°47'.

Length 82 m; draft 5.6 m.

Type: Ship (hazmat cat A). MMSI: 244741000.

Date/timePositionNaut miles runAvg speedWind from/ knotsBaromVisibWave heightAir tempDewpointWater temp
2014-Jul-24 07:33N 54°04' E 004°47'1010.5
2014-Jul-24 06:33N 54°05' E 005°04'1010.3
2014-Jul-24 05:33N 54°07' E 005°22'1010.3
2014-Jul-24 04:33N 54°08' E 005°39'1010.5
2014-Jul-24 03:33N 54°09' E 005°57'1111.0
2014-Jul-24 02:33N 54°11' E 006°16'1211.7
2014-Jul-24 01:29N 54°11' E 006°37'1412.0
2014-Jul-24 00:19N 54°11' E 007°01'911.9
2014-Jul-23 23:33N 54°12' E 007°17'1211.6
2014-Jul-23 22:33N 54°11' E 007°36'1111.3
2014-Jul-23 21:33N 54°05' E 007°54'1110.6
2014-Jul-23 20:33N 54°01' E 008°10'1010.0
2014-Jul-23 19:33N 53°59' E 008°27'9 8.6
2014-Jul-23 18:33N 53°56' E 008°40'9 9.1
2014-Jul-23 17:33N 53°51' E 008°53'10 9.7
2014-Jul-23 16:33N 53°54' E 009°09'3 3.3
2014-Jul-23 15:32N 53°56' E 009°13'7 6.7
2014-Jul-23 14:28N 54°02' E 009°18'38 4.2
2014-Jul-23 05:25N 54°23' E 010°12'11 9.5
2014-Jul-23 04:13N 54°32' E 010°25'710.2
2014-Jul-23 03:33N 54°34' E 010°36'10 9.9
2014-Jul-23 02:33N 54°35' E 010°53'1110.7
2014-Jul-23 01:33N 54°35' E 011°11'1110.7
2014-Jul-23 00:33N 54°31' E 011°28'1010.2
2014-Jul-22 23:33N 54°28' E 011°45'1010.2
2014-Jul-22 22:33N 54°27' E 012°02'9 9.3
2014-Jul-22 21:33N 54°34' E 012°13'1010.1
2014-Jul-22 20:33N 54°41' E 012°26'1010.2
2014-Jul-22 19:33N 54°44' E 012°42'1110.5
2014-Jul-22 18:33N 54°45' E 013°01'1110.8
2014-Jul-22 17:33N 54°46' E 013°19'1110.6
2014-Jul-22 16:33N 54°48' E 013°38'1010.4
2014-Jul-22 15:33N 54°48' E 013°56'1010.3
2014-Jul-22 14:33N 54°49' E 014°13'1010.2
2014-Jul-22 13:33N 54°50' E 014°31'1010.3
2014-Jul-22 12:33N 54°52' E 014°49'1010.4
2014-Jul-22 11:33N 54°55' E 015°06'1010.3
2014-Jul-22 10:33N 54°57' E 015°24'1110.0
2014-Jul-22 09:28N 55°00' E 015°42'1010.0
2014-Jul-22 08:30N 55°02' E 015°58'1110.3
2014-Jul-22 07:24N 55°05' E 016°17'910.1
2014-Jul-22 06:33N 55°07' E 016°32'10 9.9
2014-Jul-22 05:32N 55°10' E 016°49'10 9.7
2014-Jul-22 04:33N 55°12' E 017°05'10 9.9
2014-Jul-22 03:33N 55°14' E 017°22'1010.1
2014-Jul-22 02:33N 55°17' E 017°39'1010.0
2014-Jul-22 01:33N 55°19' E 017°56'10 9.9
2014-Jul-22 00:33N 55°22' E 018°13'1010.1
2014-Jul-21 23:33N 55°24' E 018°30'1010.3
2014-Jul-21 22:33N 55°27' E 018°48'1010.1
2014-Jul-21 21:33N 55°29' E 019°05'1010.1
2014-Jul-21 20:33N 55°31' E 019°23'310.1
2014-Jul-21 20:18N 55°31' E 019°27'810.2
2014-Jul-21 19:33N 55°33' E 019°40'1010.4
2014-Jul-21 18:33N 55°35' E 019°58'1010.3
2014-Jul-21 17:33N 55°38' E 020°16'1010.3
2014-Jul-21 16:33N 55°40' E 020°34'1210.1
2014-Jul-21 15:21N 55°42' E 020°55'7 0.5
2014-Jul-21 02:17N 55°43' E 021°07'0 0.0
2014-Jul-20 20:19N 55°43' E 021°07'0 0.0
2014-Jul-20 18:33N 55°43' E 021°07'0 0.0
2014-Jul-20 17:33N 55°43' E 021°07'0 0.0
2014-Jul-20 16:33N 55°43' E 021°07'0 0.0
2014-Jul-20 15:33N 55°43' E 021°07'0 0.0
2014-Jul-20 14:33N 55°43' E 021°07'0 0.0
2014-Jul-20 13:33N 55°43' E 021°07'0 0.0
2014-Jul-20 12:33N 55°43' E 021°07'0 0.0
2014-Jul-20 11:33N 55°43' E 021°07'0 0.0
2014-Jul-20 10:33N 55°43' E 021°07'2010.0
2014-Jul-20 08:32N 55°60' E 020°48'1111.2
2014-Jul-20 07:33N 56°10' E 020°42'1111.3
2014-Jul-20 06:33N 56°22' E 020°40'3711.1
2014-Jul-20 03:14N 56°58' E 020°51'  
2014-Jul-17 04:32N 56°00' E 016°35'1010.0
2014-Jul-17 03:33N 55°55' E 016°20'2110.0
2014-Jul-17 01:25N 55°45' E 015°47'910.1
2014-Jul-17 00:32N 55°40' E 015°33'1010.0
2014-Jul-16 23:33N 55°35' E 015°18'10 9.7
2014-Jul-16 22:33N 55°30' E 015°04'10 9.9
2014-Jul-16 21:33N 55°25' E 014°48'1010.2
2014-Jul-16 20:33N 55°19' E 014°34'1110.1
2014-Jul-16 19:30N 55°11' E 014°22'1010.2
2014-Jul-16 18:33N 55°04' E 014°10'1010.2
2014-Jul-16 17:33N 54°59' E 013°55'1010.2
2014-Jul-16 16:33N 54°54' E 013°39'1010.4
2014-Jul-16 15:33N 54°50' E 013°23'1110.4
2014-Jul-16 14:32N 54°46' E 013°06'1010.4
2014-Jul-16 13:33N 54°41' E 012°50'1010.3
2014-Jul-16 12:33N 54°36' E 012°34'1110.6
2014-Jul-16 11:33N 54°31' E 012°18'10 9.6
2014-Jul-16 10:33N 54°25' E 012°06'1010.3
2014-Jul-16 09:33N 54°25' E 011°48'1010.4
2014-Jul-16 08:33N 54°29' E 011°32'1110.5
2014-Jul-16 07:33N 54°33' E 011°15'72 7.9
2014-Jul-15 22:30N 54°08' E 009°20'8 8.1
2014-Jul-15 21:33N 54°00' E 009°18'7 7.5
2014-Jul-15 20:33N 53°54' E 009°10'2 2.4
2014-Jul-15 19:33N 53°53' E 009°06'6 6.6
2014-Jul-15 18:34N 53°51' E 008°56'7 6.9
2014-Jul-15 17:33N 53°52' E 008°44'8 7.5
2014-Jul-15 16:33N 53°57' E 008°36'8 8.2
2014-Jul-15 15:33N 53°59' E 008°23'10 9.3
2014-Jul-15 14:29N 53°58' E 008°06'7211.4
2014-Jul-15 08:11N 53°41' E 006°07'711.7
2014-Jul-15 07:33N 53°38' E 005°56'1211.5
2014-Jul-15 06:33N 53°35' E 005°37'1111.4
2014-Jul-15 05:33N 53°31' E 005°19'1110.5
2014-Jul-15 04:33N 53°28' E 005°02'43 8.7
2014-Jul-14 23:33N 52°48' E 004°32'9 9.3
2014-Jul-14 22:33N 52°39' E 004°31'9 9.1
2014-Jul-14 21:33N 52°30' E 004°31'4 4.1
2014-Jul-14 20:33N 52°28' E 004°37'7 6.9
2014-Jul-14 19:34N 52°24' E 004°47'0 0.2
2014-Jul-14 18:33N 52°24' E 004°47'0 0.0
2014-Jul-14 17:33N 52°24' E 004°47'0 0.0
2014-Jul-14 16:33N 52°24' E 004°47'0 0.0
2014-Jul-14 15:33N 52°24' E 004°47'0 0.0
2014-Jul-14 14:33N 52°24' E 004°47'0 0.0
2014-Jul-14 13:33N 52°24' E 004°47'0 0.0
2014-Jul-14 12:33N 52°24' E 004°47'0 0.0
2014-Jul-14 11:33N 52°24' E 004°47'0 0.0
2014-Jul-14 10:33N 52°24' E 004°47'0 0.0
2014-Jul-14 09:33N 52°24' E 004°47'0 0.0
2014-Jul-14 08:33N 52°24' E 004°47'0 0.0
2014-Jul-14 07:33N 52°24' E 004°47'  
Track history (hours):
 
Tides and Currents Weather Stations Pressure Air Temp Water Temp Dewpoint Dewpoint Depression Visibility Wind Speed Wind Dir Waves Ship Positions

Flinterbothnia

Last reported at 2014-Jul-24 07:33 UTC. Time now 2014-Jul-24 08:29 UTC.
Position N 54°04' E 004°47'.

Length 82 m; draft 5.6 m.

Type: Ship (hazmat cat A). MMSI: 244741000.

Date/timePositionNaut miles runAvg speedWind from/ knotsBaromVisibWave heightAir tempDewpointWater temp
2014-Jul-24 07:33N 54°04' E 004°47'1010.5
2014-Jul-24 06:33N 54°05' E 005°04'1010.3
2014-Jul-24 05:33N 54°07' E 005°22'1010.3
2014-Jul-24 04:33N 54°08' E 005°39'1010.5
2014-Jul-24 03:33N 54°09' E 005°57'1111.0
2014-Jul-24 02:33N 54°11' E 006°16'1211.7
2014-Jul-24 01:29N 54°11' E 006°37'1412.0
2014-Jul-24 00:19N 54°11' E 007°01'911.9
2014-Jul-23 23:33N 54°12' E 007°17'1211.6
2014-Jul-23 22:33N 54°11' E 007°36'1111.3
2014-Jul-23 21:33N 54°05' E 007°54'1110.6
2014-Jul-23 20:33N 54°01' E 008°10'1010.0
2014-Jul-23 19:33N 53°59' E 008°27'9 8.6
2014-Jul-23 18:33N 53°56' E 008°40'9 9.1
2014-Jul-23 17:33N 53°51' E 008°53'10 9.7
2014-Jul-23 16:33N 53°54' E 009°09'3 3.3
2014-Jul-23 15:32N 53°56' E 009°13'7 6.7
2014-Jul-23 14:28N 54°02' E 009°18'38 4.2
2014-Jul-23 05:25N 54°23' E 010°12'11 9.5
2014-Jul-23 04:13N 54°32' E 010°25'710.2
2014-Jul-23 03:33N 54°34' E 010°36'10 9.9
2014-Jul-23 02:33N 54°35' E 010°53'1110.7
2014-Jul-23 01:33N 54°35' E 011°11'1110.7
2014-Jul-23 00:33N 54°31' E 011°28'1010.2
2014-Jul-22 23:33N 54°28' E 011°45'1010.2
2014-Jul-22 22:33N 54°27' E 012°02'9 9.3
2014-Jul-22 21:33N 54°34' E 012°13'1010.1
2014-Jul-22 20:33N 54°41' E 012°26'1010.2
2014-Jul-22 19:33N 54°44' E 012°42'1110.5
2014-Jul-22 18:33N 54°45' E 013°01'1110.8
2014-Jul-22 17:33N 54°46' E 013°19'1110.6
2014-Jul-22 16:33N 54°48' E 013°38'1010.4
2014-Jul-22 15:33N 54°48' E 013°56'1010.3
2014-Jul-22 14:33N 54°49' E 014°13'1010.2
2014-Jul-22 13:33N 54°50' E 014°31'1010.3
2014-Jul-22 12:33N 54°52' E 014°49'1010.4
2014-Jul-22 11:33N 54°55' E 015°06'1010.3
2014-Jul-22 10:33N 54°57' E 015°24'1110.0
2014-Jul-22 09:28N 55°00' E 015°42'1010.0
2014-Jul-22 08:30N 55°02' E 015°58'1110.3
2014-Jul-22 07:24N 55°05' E 016°17'910.1
2014-Jul-22 06:33N 55°07' E 016°32'10 9.9
2014-Jul-22 05:32N 55°10' E 016°49'10 9.7
2014-Jul-22 04:33N 55°12' E 017°05'10 9.9
2014-Jul-22 03:33N 55°14' E 017°22'1010.1
2014-Jul-22 02:33N 55°17' E 017°39'1010.0
2014-Jul-22 01:33N 55°19' E 017°56'10 9.9
2014-Jul-22 00:33N 55°22' E 018°13'1010.1
2014-Jul-21 23:33N 55°24' E 018°30'1010.3
2014-Jul-21 22:33N 55°27' E 018°48'1010.1
2014-Jul-21 21:33N 55°29' E 019°05'1010.1
2014-Jul-21 20:33N 55°31' E 019°23'310.1
2014-Jul-21 20:18N 55°31' E 019°27'810.2
2014-Jul-21 19:33N 55°33' E 019°40'1010.4
2014-Jul-21 18:33N 55°35' E 019°58'1010.3
2014-Jul-21 17:33N 55°38' E 020°16'1010.3
2014-Jul-21 16:33N 55°40' E 020°34'1210.1
2014-Jul-21 15:21N 55°42' E 020°55'7 0.5
2014-Jul-21 02:17N 55°43' E 021°07'0 0.0
2014-Jul-20 20:19N 55°43' E 021°07'0 0.0
2014-Jul-20 18:33N 55°43' E 021°07'0 0.0
2014-Jul-20 17:33N 55°43' E 021°07'0 0.0
2014-Jul-20 16:33N 55°43' E 021°07'0 0.0
2014-Jul-20 15:33N 55°43' E 021°07'0 0.0
2014-Jul-20 14:33N 55°43' E 021°07'0 0.0
2014-Jul-20 13:33N 55°43' E 021°07'0 0.0
2014-Jul-20 12:33N 55°43' E 021°07'0 0.0
2014-Jul-20 11:33N 55°43' E 021°07'0 0.0
2014-Jul-20 10:33N 55°43' E 021°07'2010.0
2014-Jul-20 08:32N 55°60' E 020°48'1111.2
2014-Jul-20 07:33N 56°10' E 020°42'1111.3
2014-Jul-20 06:33N 56°22' E 020°40'3711.1
2014-Jul-20 03:14N 56°58' E 020°51'  
2014-Jul-17 04:32N 56°00' E 016°35'1010.0
2014-Jul-17 03:33N 55°55' E 016°20'2110.0
2014-Jul-17 01:25N 55°45' E 015°47'910.1
2014-Jul-17 00:32N 55°40' E 015°33'1010.0
2014-Jul-16 23:33N 55°35' E 015°18'10 9.7
2014-Jul-16 22:33N 55°30' E 015°04'10 9.9
2014-Jul-16 21:33N 55°25' E 014°48'1010.2
2014-Jul-16 20:33N 55°19' E 014°34'1110.1
2014-Jul-16 19:30N 55°11' E 014°22'1010.2
2014-Jul-16 18:33N 55°04' E 014°10'1010.2
2014-Jul-16 17:33N 54°59' E 013°55'1010.2
2014-Jul-16 16:33N 54°54' E 013°39'1010.4
2014-Jul-16 15:33N 54°50' E 013°23'1110.4
2014-Jul-16 14:32N 54°46' E 013°06'1010.4
2014-Jul-16 13:33N 54°41' E 012°50'1010.3
2014-Jul-16 12:33N 54°36' E 012°34'1110.6
2014-Jul-16 11:33N 54°31' E 012°18'10 9.6
2014-Jul-16 10:33N 54°25' E 012°06'1010.3
2014-Jul-16 09:33N 54°25' E 011°48'1010.4
2014-Jul-16 08:33N 54°29' E 011°32'1110.5
2014-Jul-16 07:33N 54°33' E 011°15'72 7.9
2014-Jul-15 22:30N 54°08' E 009°20'8 8.1
2014-Jul-15 21:33N 54°00' E 009°18'7 7.5
2014-Jul-15 20:33N 53°54' E 009°10'2 2.4
2014-Jul-15 19:33N 53°53' E 009°06'6 6.6
2014-Jul-15 18:34N 53°51' E 008°56'7 6.9
2014-Jul-15 17:33N 53°52' E 008°44'8 7.5
2014-Jul-15 16:33N 53°57' E 008°36'8 8.2
2014-Jul-15 15:33N 53°59' E 008°23'10 9.3
2014-Jul-15 14:29N 53°58' E 008°06'7211.4
2014-Jul-15 08:11N 53°41' E 006°07'711.7
2014-Jul-15 07:33N 53°38' E 005°56'1211.5
2014-Jul-15 06:33N 53°35' E 005°37'1111.4
2014-Jul-15 05:33N 53°31' E 005°19'1110.5
2014-Jul-15 04:33N 53°28' E 005°02'43 8.7
2014-Jul-14 23:33N 52°48' E 004°32'9 9.3
2014-Jul-14 22:33N 52°39' E 004°31'9 9.1
2014-Jul-14 21:33N 52°30' E 004°31'4 4.1
2014-Jul-14 20:33N 52°28' E 004°37'7 6.9
2014-Jul-14 19:34N 52°24' E 004°47'0 0.2
2014-Jul-14 18:33N 52°24' E 004°47'0 0.0
2014-Jul-14 17:33N 52°24' E 004°47'0 0.0
2014-Jul-14 16:33N 52°24' E 004°47'0 0.0
2014-Jul-14 15:33N 52°24' E 004°47'0 0.0
2014-Jul-14 14:33N 52°24' E 004°47'0 0.0
2014-Jul-14 13:33N 52°24' E 004°47'0 0.0
2014-Jul-14 12:33N 52°24' E 004°47'0 0.0
2014-Jul-14 11:33N 52°24' E 004°47'0 0.0
2014-Jul-14 10:33N 52°24' E 004°47'0 0.0
2014-Jul-14 09:33N 52°24' E 004°47'0 0.0
2014-Jul-14 08:33N 52°24' E 004°47'0 0.0
2014-Jul-14 07:33N 52°24' E 004°47'  

Dump ship's entire track history